Time;durP1;ratioP1;P1;durP2;ratioP2;P2;SDS_P1;SDS_P2;PMS_P1;PMS_P2;Temp;Humidity;BMP_temperature;BMP_pressure;BME280_temperature;BME280_humidity;BME280_pressure;Samples;Min_cycle;Max_cycle;Signal;HPM_P1;HPM_P2
2022/09/21 00:01:13;;;;;;;1999.90;999.90;;;6.10;99.90;;;;;;5083126;28;20035;-65
2022/09/21 00:03:40;;;;;;;1999.90;999.90;;;6.10;99.90;;;;;;5079436;28;20072;-65
2022/09/21 00:06:12;;;;;;;1999.90;999.90;;;6.00;99.90;;;;;;5087912;28;20572;-65
2022/09/21 00:08:38;;;;;;;1999.90;999.90;;;6.00;99.90;;;;;;5121439;27;20522;-65
2022/09/21 00:11:04;;;;;;;1999.90;999.90;;;6.00;99.90;;;;;;5091863;28;20044;-65
2022/09/21 00:13:32;;;;;;;1999.90;999.90;;;6.00;99.90;;;;;;5079314;28;20043;-65
2022/09/21 00:15:58;;;;;;;1999.90;999.90;;;6.00;99.90;;;;;;5093182;28;20059;-65
2022/09/21 00:18:24;;;;;;;1999.90;999.90;;;5.90;99.90;;;;;;5076361;28;20084;-65
2022/09/21 00:20:51;;;;;;;1999.90;999.90;;;5.90;99.90;;;;;;5068919;27;20054;-65
2022/09/21 00:23:17;;;;;;;1999.90;999.90;;;5.90;99.90;;;;;;5095113;28;20051;-65
2022/09/21 00:25:43;;;;;;;1999.90;999.90;;;5.80;99.90;;;;;;5084434;28;20407;-64
2022/09/21 00:28:08;;;;;;;1999.90;999.90;;;5.80;99.90;;;;;;5105579;28;20067;-65
2022/09/21 00:30:34;;;;;;;1999.90;999.90;;;5.80;99.90;;;;;;5110073;28;20039;-65
2022/09/21 00:33:00;;;;;;;1999.90;999.90;;;5.80;99.90;;;;;;5120428;27;20043;-65
2022/09/21 00:35:25;;;;;;;1999.90;999.90;;;5.80;99.90;;;;;;5092139;28;20146;-65
2022/09/21 00:37:51;;;;;;;1999.90;999.90;;;5.80;99.90;;;;;;5083026;28;20092;-65
2022/09/21 00:40:16;;;;;;;1999.90;999.90;;;5.70;99.90;;;;;;5092393;28;20032;-65
2022/09/21 00:42:42;;;;;;;1999.90;999.90;;;5.70;99.90;;;;;;5092719;28;20124;-65
2022/09/21 00:45:19;;;;;;;1999.90;999.90;;;5.70;99.90;;;;;;5099101;28;20036;-65
2022/09/21 00:47:49;;;;;;;1999.90;999.90;;;5.70;99.90;;;;;;5061027;28;20040;-64
2022/09/21 00:50:18;;;;;;;1999.90;999.90;;;5.70;99.90;;;;;;5081332;28;20067;-65
2022/09/21 00:52:49;;;;;;;1999.90;999.90;;;5.70;99.90;;;;;;5078854;28;20837;-65
2022/09/21 00:55:19;;;;;;;1999.90;999.90;;;5.70;99.90;;;;;;5102986;28;20407;-65
2022/09/21 00:57:48;;;;;;;1999.90;999.90;;;5.60;99.90;;;;;;5071885;28;20051;-64
2022/09/21 01:00:13;;;;;;;1999.90;999.90;;;5.60;99.90;;;;;;5064965;28;20400;-65
2022/09/21 01:02:39;;;;;;;1999.90;999.90;;;5.60;99.90;;;;;;5108177;28;20046;-65
2022/09/21 01:05:07;;;;;;;1999.90;999.90;;;5.60;99.90;;;;;;5081725;28;20078;-65
2022/09/21 01:07:36;;;;;;;1999.90;999.90;;;5.60;99.90;;;;;;5100103;27;20116;-65
2022/09/21 01:10:10;;;;;;;1999.90;999.90;;;5.50;99.90;;;;;;5107138;28;20042;-65
2022/09/21 01:12:54;;;;;;;1999.90;999.90;;;5.60;99.90;;;;;;5106648;28;20043;-65
2022/09/21 01:15:50;;;;;;;1999.90;999.90;;;5.50;99.90;;;;;;5063230;28;20037;-65
2022/09/21 01:18:29;;;;;;;1999.90;999.90;;;5.50;99.90;;;;;;5073131;28;20395;-64
2022/09/21 01:21:07;;;;;;;1999.90;999.90;;;5.50;99.90;;;;;;5110902;27;20039;-65
2022/09/21 01:24:07;;;;;;;1999.90;999.90;;;5.40;99.90;;;;;;5104637;27;20392;-65
2022/09/21 01:26:42;;;;;;;1999.90;999.90;;;5.40;99.90;;;;;;5111067;27;20044;-65
2022/09/21 01:29:43;;;;;;;1999.90;999.90;;;5.40;99.90;;;;;;5094752;28;20094;-65
2022/09/21 01:32:34;;;;;;;1999.90;999.90;;;5.40;99.90;;;;;;5091258;28;20066;-64
2022/09/21 01:35:13;;;;;;;1999.90;999.90;;;5.40;99.90;;;;;;5096527;28;20050;-65
2022/09/21 01:38:02;;;;;;;1999.90;999.90;;;5.40;99.90;;;;;;5106107;27;20047;-65
2022/09/21 01:40:32;;;;;;;1999.90;999.90;;;5.40;99.90;;;;;;5084919;28;20079;-65
2022/09/21 01:43:01;;;;;;;1999.90;999.90;;;5.30;99.90;;;;;;5099055;28;20054;-65
2022/09/21 01:45:47;;;;;;;1999.90;999.90;;;5.30;99.90;;;;;;5108678;28;20043;-65
2022/09/21 01:48:14;;;;;;;1999.90;999.90;;;5.30;99.90;;;;;;5083735;28;20036;-65
2022/09/21 01:50:45;;;;;;;1999.90;999.90;;;5.30;99.90;;;;;;5107216;28;20039;-65
2022/09/21 01:53:20;;;;;;;1999.90;999.90;;;5.30;99.90;;;;;;5107595;28;20032;-65
2022/09/21 01:55:51;;;;;;;1999.90;999.90;;;5.20;99.90;;;;;;5090049;28;20048;-65
2022/09/21 01:58:26;;;;;;;1999.90;999.90;;;5.20;99.90;;;;;;5091150;28;20043;-65
2022/09/21 02:00:54;;;;;;;1999.90;999.90;;;5.20;99.90;;;;;;5099205;27;20113;-65
2022/09/21 02:03:55;;;;;;;1999.90;999.90;;;5.20;99.90;;;;;;5116742;27;20114;-65
2022/09/21 02:06:23;;;;;;;1999.90;999.90;;;5.20;99.90;;;;;;5012582;28;20063;-64
2022/09/21 02:08:49;;;;;;;1999.90;999.90;;;5.20;99.90;;;;;;5041220;28;20143;-64
2022/09/21 02:11:14;;;;;;;1999.90;999.90;;;5.20;99.90;;;;;;5028302;28;20691;-65
2022/09/21 02:13:44;;;;;;;1999.90;999.90;;;5.20;99.90;;;;;;5027696;28;20547;-65
2022/09/21 02:16:35;;;;;;;1999.90;999.90;;;5.20;99.90;;;;;;5044794;28;20053;-65
2022/09/21 02:19:11;;;;;;;1999.90;999.90;;;5.20;99.90;;;;;;4992242;28;20456;-65
2022/09/21 02:21:43;;;;;;;1999.90;999.90;;;5.10;99.90;;;;;;5034193;28;20048;-65
2022/09/21 02:24:23;;;;;;;1999.90;999.90;;;5.10;99.90;;;;;;5023881;28;20084;-65
2022/09/21 02:26:58;;;;;;;1999.90;999.90;;;5.10;99.90;;;;;;5042978;28;20052;-65
2022/09/21 02:30:00;;;;;;;1999.90;999.90;;;5.10;99.90;;;;;;5036378;28;20102;-65
2022/09/21 02:32:34;;;;;;;1999.90;999.90;;;5.10;99.90;;;;;;5041267;28;20068;-65
2022/09/21 02:35:11;;;;;;;1999.90;999.90;;;5.00;99.90;;;;;;5045340;28;20059;-65
2022/09/21 02:37:43;;;;;;;1999.90;999.90;;;5.00;99.90;;;;;;5039857;28;20051;-64
2022/09/21 02:40:24;;;;;;;1999.90;999.90;;;5.00;99.90;;;;;;5028087;28;20045;-65
2022/09/21 02:42:55;;;;;;;1999.90;999.90;;;5.00;99.90;;;;;;5058382;28;20056;-65
2022/09/21 02:45:24;;;;;;;1999.90;999.90;;;5.00;99.90;;;;;;5078109;28;20086;-65
2022/09/21 02:48:04;;;;;;;1999.90;999.90;;;5.00;99.90;;;;;;5074132;28;20036;-65
2022/09/21 02:50:41;;;;;;;1999.90;999.90;;;4.90;99.90;;;;;;5070702;28;20052;-64
2022/09/21 02:53:10;;;;;;;1999.90;999.90;;;4.90;99.90;;;;;;5073277;28;20134;-65
2022/09/21 02:55:36;;;;;;;1999.90;999.90;;;4.90;99.90;;;;;;5094706;27;20486;-65
2022/09/21 02:58:06;;;;;;;1999.90;999.90;;;4.90;99.90;;;;;;5072905;28;20120;-65
2022/09/21 03:00:34;;;;;;;1999.90;999.90;;;4.90;99.90;;;;;;5090174;28;20122;-64
2022/09/21 03:03:15;;;;;;;1999.90;999.90;;;4.90;99.90;;;;;;5107668;27;20084;-65
2022/09/21 03:05:42;;;;;;;1999.90;999.90;;;5.00;99.90;;;;;;5094074;28;20035;-65
2022/09/21 03:08:08;;;;;;;1999.90;999.90;;;4.90;99.90;;;;;;5106407;28;20039;-65
2022/09/21 03:10:38;;;;;;;1999.90;999.90;;;4.90;99.90;;;;;;5075969;28;20050;-65
2022/09/21 03:13:04;;;;;;;1999.90;999.90;;;4.90;99.90;;;;;;5094039;28;20046;-65
2022/09/21 03:15:30;;;;;;;1999.90;999.90;;;4.90;99.90;;;;;;5077950;28;20036;-65
2022/09/21 03:17:55;;;;;;;1999.90;999.90;;;4.90;99.90;;;;;;5087627;28;20035;-65
2022/09/21 03:20:21;;;;;;;1999.90;999.90;;;4.80;99.90;;;;;;5098077;28;20588;-65
2022/09/21 03:22:46;;;;;;;1999.90;999.90;;;4.80;99.90;;;;;;5095240;28;20699;-65
2022/09/21 03:25:12;;;;;;;1999.90;999.90;;;4.80;99.90;;;;;;5115375;27;20074;-65
2022/09/21 03:27:38;;;;;;;1999.90;999.90;;;4.80;99.90;;;;;;5114691;28;20059;-65
2022/09/21 03:30:04;;;;;;;1999.90;999.90;;;4.70;99.90;;;;;;5095586;28;20050;-65
2022/09/21 03:32:29;;;;;;;1999.90;999.90;;;4.70;99.90;;;;;;5101879;28;20066;-65
2022/09/21 03:34:55;;;;;;;1999.90;999.90;;;4.70;99.90;;;;;;5090419;28;20039;-65
2022/09/21 03:37:20;;;;;;;1999.90;999.90;;;4.70;99.90;;;;;;5105777;28;20508;-65
2022/09/21 03:39:46;;;;;;;1999.90;999.90;;;4.70;99.90;;;;;;5093999;28;20040;-65
2022/09/21 03:42:12;;;;;;;1999.90;999.90;;;4.70;99.90;;;;;;5069005;28;20038;-65
2022/09/21 03:44:40;;;;;;;1999.90;999.90;;;4.70;99.90;;;;;;5108343;28;20054;-65
2022/09/21 03:47:06;;;;;;;1999.90;999.90;;;4.70;99.90;;;;;;5102284;28;20101;-65
2022/09/21 03:49:32;;;;;;;1999.90;999.90;;;4.70;99.90;;;;;;5080423;28;20403;-65
2022/09/21 03:51:58;;;;;;;1999.90;999.90;;;4.70;99.90;;;;;;5112121;28;20970;-65
2022/09/21 03:54:24;;;;;;;1999.90;999.90;;;4.70;99.90;;;;;;5088350;28;20172;-64
2022/09/21 03:56:50;;;;;;;1999.90;999.90;;;4.70;99.90;;;;;;5088311;28;20059;-65
2022/09/21 03:59:16;;;;;;;1999.90;999.90;;;4.60;99.90;;;;;;5090304;28;20394;-65
2022/09/21 04:01:42;;;;;;;1999.90;999.90;;;4.60;99.90;;;;;;5111687;28;20036;-65
2022/09/21 04:04:07;;;;;;;1999.90;999.90;;;4.60;99.90;;;;;;5093604;28;20046;-65
2022/09/21 04:06:33;;;;;;;1999.90;999.90;;;4.60;99.90;;;;;;5104704;28;20042;-65
2022/09/21 04:09:01;;;;;;;1999.90;999.90;;;4.60;99.90;;;;;;5105147;28;20043;-65
2022/09/21 04:11:27;;;;;;;1999.90;999.90;;;4.70;99.90;;;;;;5080413;28;20123;-65
2022/09/21 04:13:55;;;;;;;1999.90;999.90;;;4.70;99.90;;;;;;5117200;27;20114;-65
2022/09/21 04:16:25;;;;;;;1999.90;999.90;;;4.70;99.90;;;;;;5083011;28;20391;-65
2022/09/21 04:18:51;;;;;;;1999.90;999.90;;;4.60;99.90;;;;;;5089374;28;20552;-65
2022/09/21 04:21:18;;;;;;;1999.90;999.90;;;4.60;99.90;;;;;;5102157;28;20119;-65
2022/09/21 04:23:44;;;;;;;1999.90;999.90;;;4.60;99.90;;;;;;5086364;28;20766;-65
2022/09/21 04:26:39;;;;;;;1999.90;999.90;;;4.60;99.90;;;;;;5080898;28;20050;-65
2022/09/21 04:29:05;;;;;;;1999.90;999.90;;;4.60;99.90;;;;;;5078517;28;20392;-65
2022/09/21 04:31:32;;;;;;;1999.90;999.90;;;4.60;99.90;;;;;;5103922;28;20104;-65
2022/09/21 04:33:58;;;;;;;1999.90;999.90;;;4.60;99.90;;;;;;5081260;28;20052;-65
2022/09/21 04:36:27;;;;;;;1999.90;999.90;;;4.60;99.90;;;;;;5099361;27;20046;-65
2022/09/21 04:38:52;;;;;;;1999.90;999.90;;;4.50;99.90;;;;;;5041795;28;20074;-65
2022/09/21 04:41:19;;;;;;;1999.90;999.90;;;4.60;99.90;;;;;;5085162;28;20529;-65
2022/09/21 04:43:46;;;;;;;1999.90;999.90;;;4.60;99.90;;;;;;5092132;28;20149;-65
2022/09/21 04:46:14;;;;;;;1999.90;999.90;;;4.50;99.90;;;;;;5111075;28;20047;-65
2022/09/21 04:48:40;;;;;;;1999.90;999.90;;;4.60;99.90;;;;;;5098779;28;20483;-66
2022/09/21 04:51:07;;;;;;;1999.90;999.90;;;4.50;99.90;;;;;;5064521;28;20062;-65
2022/09/21 04:53:33;;;;;;;1999.90;999.90;;;4.50;99.90;;;;;;5086763;28;20403;-65
2022/09/21 04:55:59;;;;;;;1999.90;999.90;;;4.50;99.90;;;;;;5067606;28;20059;-65
2022/09/21 04:58:25;;;;;;;1999.90;999.90;;;4.50;99.90;;;;;;5092517;28;20040;-65
2022/09/21 05:00:51;;;;;;;1999.90;999.90;;;4.60;99.90;;;;;;5098506;27;20043;-65
2022/09/21 05:03:18;;;;;;;1999.90;999.90;;;4.50;99.90;;;;;;5115048;27;20395;-65
2022/09/21 05:05:48;;;;;;;1999.90;999.90;;;4.50;99.90;;;;;;5097826;27;20035;-65
2022/09/21 05:08:15;;;;;;;1999.90;999.90;;;4.50;99.90;;;;;;5090988;28;20118;-65
2022/09/21 05:10:41;;;;;;;1999.90;999.90;;;4.60;99.90;;;;;;5107186;28;20560;-65
2022/09/21 05:13:07;;;;;;;1999.90;999.90;;;4.50;99.90;;;;;;5090443;28;20048;-65
2022/09/21 05:15:33;;;;;;;1999.90;999.90;;;4.50;99.90;;;;;;5099102;27;20071;-65
2022/09/21 05:17:58;;;;;;;1999.90;999.90;;;4.50;99.90;;;;;;5097088;28;20035;-65
2022/09/21 05:20:24;;;;;;;1999.90;999.90;;;4.50;99.90;;;;;;5097895;27;20123;-65
2022/09/21 05:22:49;;;;;;;1999.90;999.90;;;4.50;99.90;;;;;;5110648;27;20041;-65
2022/09/21 05:25:16;;;;;;;1999.90;999.90;;;4.50;99.90;;;;;;5084642;27;20036;-65
2022/09/21 05:27:41;;;;;;;1999.90;999.90;;;4.60;99.90;;;;;;5096783;28;20043;-65
2022/09/21 05:30:08;;;;;;;1999.90;999.90;;;4.50;99.90;;;;;;5111890;27;20054;-65
2022/09/21 05:33:00;;;;;;;1999.90;999.90;;;4.60;99.90;;;;;;5097829;28;20087;-65
2022/09/21 05:35:37;;;;;;;1999.90;999.90;;;4.60;99.90;;;;;;5057924;28;20551;-65
2022/09/21 05:38:17;;;;;;;1999.90;999.90;;;4.60;99.90;;;;;;5075333;28;20044;-65
2022/09/21 05:40:44;;;;;;;1999.90;999.90;;;4.60;99.90;;;;;;5082063;28;20024;-65
2022/09/21 05:43:10;;;;;;;1999.90;999.90;;;4.60;99.90;;;;;;5079801;28;20201;-65
2022/09/21 05:45:42;;;;;;;1999.90;999.90;;;4.60;99.90;;;;;;5106890;28;20035;-65
2022/09/21 05:48:17;;;;;;;1999.90;999.90;;;4.60;99.90;;;;;;5072910;28;20039;-64
2022/09/21 05:50:54;;;;;;;1999.90;999.90;;;4.60;99.90;;;;;;5090275;28;20421;-65
2022/09/21 05:53:22;;;;;;;1999.90;999.90;;;4.70;99.90;;;;;;5105952;28;20043;-65
2022/09/21 05:56:01;;;;;;;1999.90;999.90;;;4.70;99.90;;;;;;5091188;28;20047;-65
2022/09/21 05:58:44;;;;;;;1999.90;999.90;;;4.70;99.90;;;;;;5087009;28;20459;-65
2022/09/21 06:01:19;;;;;;;1999.90;999.90;;;4.80;99.90;;;;;;5100745;28;20039;-65
2022/09/21 06:03:47;;;;;;;1999.90;999.90;;;4.80;99.90;;;;;;5099213;27;20038;-65
2022/09/21 06:06:13;;;;;;;1999.90;999.90;;;4.80;99.90;;;;;;5101812;27;20045;-65
2022/09/21 06:08:38;;;;;;;1999.90;999.90;;;4.90;99.90;;;;;;5074284;27;20043;-65
2022/09/21 06:11:04;;;;;;;1999.90;999.90;;;5.00;99.90;;;;;;5101745;28;20032;-65
2022/09/21 06:13:30;;;;;;;1999.90;999.90;;;5.00;99.90;;;;;;5096466;28;20092;-65
2022/09/21 06:15:57;;;;;;;1999.90;999.90;;;5.10;99.90;;;;;;5086178;28;20452;-65
2022/09/21 06:18:22;;;;;;;1999.90;999.90;;;5.10;99.90;;;;;;5097461;28;20045;-65
2022/09/21 06:20:48;;;;;;;1999.90;999.90;;;5.20;99.90;;;;;;5110319;27;20639;-65
2022/09/21 06:23:14;;;;;;;1999.90;999.90;;;5.30;99.90;;;;;;5076793;28;20063;-65
2022/09/21 06:25:39;;;;;;;1999.90;999.90;;;5.40;99.90;;;;;;5098022;28;20040;-65
2022/09/21 06:28:15;;;;;;;1999.90;999.90;;;5.50;99.90;;;;;;5094635;28;20047;-65
2022/09/21 06:30:42;;;;;;;1999.90;999.90;;;5.60;99.90;;;;;;5108548;28;20085;-65
2022/09/21 06:33:08;;;;;;;1999.90;999.90;;;5.70;99.90;;;;;;5100762;28;20080;-65
2022/09/21 06:35:34;;;;;;;1999.90;999.90;;;5.90;99.90;;;;;;5093709;28;20494;-65
2022/09/21 06:38:01;;;;;;;1999.90;999.90;;;5.90;99.90;;;;;;5109529;28;20424;-65
2022/09/21 06:40:28;;;;;;;1999.90;999.90;;;6.10;99.90;;;;;;5108468;28;20119;-65
2022/09/21 06:42:59;;;;;;;1999.90;999.90;;;6.30;99.90;;;;;;5071218;28;20602;-65
2022/09/21 06:45:25;;;;;;;1999.90;999.90;;;6.40;99.90;;;;;;5084922;28;20085;-65
2022/09/21 06:47:51;;;;;;;1999.90;999.90;;;6.70;99.90;;;;;;5076325;28;20497;-65
2022/09/21 06:50:16;;;;;;;1999.90;999.90;;;6.80;99.90;;;;;;5089732;28;20043;-65
2022/09/21 06:52:42;;;;;;;1999.90;999.90;;;7.00;99.90;;;;;;5075481;28;20491;-65
2022/09/21 06:55:11;;;;;;;1999.90;999.90;;;7.20;99.90;;;;;;5102246;28;20052;-65
2022/09/21 06:57:37;;;;;;;1999.90;999.90;;;7.20;99.90;;;;;;5085837;28;20036;-65
2022/09/21 07:00:04;;;;;;;1999.90;999.90;;;7.30;99.90;;;;;;5084736;28;20399;-65
2022/09/21 07:02:30;;;;;;;1999.90;999.90;;;7.40;99.90;;;;;;5102214;28;20040;-65
2022/09/21 07:04:57;;;;;;;1999.90;999.90;;;7.40;99.90;;;;;;5086020;28;20036;-65
2022/09/21 07:07:23;;;;;;;1999.90;999.90;;;7.60;99.90;;;;;;5098889;28;20040;-65
2022/09/21 07:09:48;;;;;;;1999.90;999.90;;;7.80;99.90;;;;;;5098629;28;20042;-65
2022/09/21 07:12:14;;;;;;;1999.90;999.90;;;8.30;99.90;;;;;;5099508;28;20039;-65
2022/09/21 07:14:40;;;;;;;1999.90;999.90;;;8.70;99.90;;;;;;5084728;28;20044;-65
2022/09/21 07:17:07;;;;;;;1999.90;999.90;;;8.80;99.90;;;;;;5079883;28;20112;-65
2022/09/21 07:19:32;;;;;;;1999.90;999.90;;;8.90;99.90;;;;;;5099712;28;20058;-65
2022/09/21 07:21:58;;;;;;;1999.90;999.90;;;9.10;99.90;;;;;;5104471;28;20044;-65
2022/09/21 07:24:23;;;;;;;1999.90;999.90;;;9.30;99.90;;;;;;5090546;28;20047;-65
2022/09/21 07:26:49;;;;;;;1999.90;999.90;;;9.40;99.90;;;;;;5098866;28;20043;-65
2022/09/21 07:29:14;;;;;;;1999.90;999.90;;;9.40;99.90;;;;;;5112586;28;20051;-65
2022/09/21 07:31:43;;;;;;;1999.90;999.90;;;9.50;99.90;;;;;;5089677;28;20541;-65
2022/09/21 07:34:10;;;;;;;1999.90;999.90;;;9.60;99.90;;;;;;5100527;28;20890;-65
2022/09/21 07:36:35;;;;;;;1999.90;999.90;;;9.80;99.90;;;;;;5079113;28;20052;-65
2022/09/21 07:39:02;;;;;;;1999.90;999.90;;;9.90;99.90;;;;;;5100221;28;20484;-65
2022/09/21 07:41:28;;;;;;;1999.90;999.90;;;9.90;99.90;;;;;;5090127;28;20044;-65
2022/09/21 07:43:53;;;;;;;1999.90;999.90;;;10.00;99.90;;;;;;5099381;28;20040;-65
2022/09/21 07:46:19;;;;;;;1999.90;999.90;;;10.10;99.90;;;;;;5077302;28;20410;-65
2022/09/21 07:48:45;;;;;;;1999.90;999.90;;;10.30;99.90;;;;;;5084287;28;20146;-65
2022/09/21 07:51:13;;;;;;;1999.90;999.90;;;10.40;99.90;;;;;;5100877;28;20124;-65
2022/09/21 07:53:41;;;;;;;1999.90;999.90;;;10.60;99.90;;;;;;5098060;28;20070;-65
2022/09/21 07:56:10;;;;;;;1999.90;999.90;;;10.70;99.90;;;;;;5099162;28;20044;-65
2022/09/21 08:01:21;;;;;;;1999.90;999.90;;;11.10;99.90;;;;;;5093954;28;20040;-65
2022/09/21 08:03:52;;;;;;;1999.90;999.90;;;11.30;99.90;;;;;;5078849;28;20496;-65
2022/09/21 08:06:18;;;;;;;1999.90;999.90;;;11.50;99.90;;;;;;5098780;28;20082;-65
2022/09/21 08:08:47;;;;;;;1999.90;999.90;;;12.00;99.90;;;;;;5107015;28;20044;-65
2022/09/21 08:11:13;;;;;;;1999.90;999.90;;;12.30;99.90;;;;;;5086331;28;20407;-65
2022/09/21 08:13:38;;;;;;;1999.90;999.90;;;12.40;99.90;;;;;;5113137;27;20606;-65
2022/09/21 08:16:04;;;;;;;1999.90;999.90;;;12.50;99.90;;;;;;5084022;28;20123;-65
2022/09/21 08:18:30;;;;;;;1999.90;999.90;;;12.70;99.90;;;;;;5095580;27;20059;-65
2022/09/21 08:20:58;;;;;;;1999.90;999.90;;;12.90;99.90;;;;;;5097626;27;20070;-65
2022/09/21 08:23:27;;;;;;;1999.90;999.90;;;13.10;99.90;;;;;;5077658;28;20525;-65
2022/09/21 08:25:59;;;;;;;1999.90;999.90;;;13.10;99.90;;;;;;5082780;28;20036;-65
2022/09/21 08:28:25;;;;;;;1999.90;999.90;;;13.30;99.90;;;;;;5104637;27;20532;-65
2022/09/21 08:30:50;;;;;;;1999.90;999.90;;;13.40;99.90;;;;;;5086559;28;20047;-65
2022/09/21 08:33:16;;;;;;;1999.90;999.90;;;13.50;99.90;;;;;;5100247;27;20039;-65
2022/09/21 08:35:41;;;;;;;1999.90;999.90;;;13.70;99.90;;;;;;5100618;28;20120;-66
2022/09/21 08:38:07;;;;;;;1999.90;999.90;;;14.10;99.90;;;;;;5065063;28;20050;-66
2022/09/21 08:40:34;;;;;;;1999.90;999.90;;;14.40;99.90;;;;;;5111045;28;20047;-66
2022/09/21 08:43:28;;;;;;;1999.90;999.90;;;14.60;99.90;;;;;;5106230;28;20108;-65
2022/09/21 08:45:57;;;;;;;1999.90;999.90;;;15.20;99.90;;;;;;5097319;28;20040;-65
2022/09/21 08:48:27;;;;;;;1999.90;999.90;;;16.10;99.90;;;;;;5110663;28;20546;-65
2022/09/21 08:50:56;;;;;;;1999.90;999.90;;;17.20;99.90;;;;;;5106231;28;20035;-65
2022/09/21 08:53:33;;;;;;;1999.90;999.90;;;18.20;99.90;;;;;;5097749;28;20112;-65
2022/09/21 08:56:00;;;;;;;1999.90;999.90;;;19.00;99.90;;;;;;5090858;28;20097;-65
2022/09/21 08:58:28;;;;;;;1999.90;999.90;;;19.50;99.90;;;;;;5104122;28;20197;-66
2022/09/21 09:01:18;;;;;;;1999.90;999.90;;;20.00;99.90;;;;;;5096950;28;20036;-66
2022/09/21 09:03:55;;;;;;;1999.90;999.90;;;20.40;99.90;;;;;;5110521;28;20036;-66
2022/09/21 09:06:42;;;;;;;1999.90;999.90;;;20.60;99.90;;;;;;5062871;28;20753;-66
2022/09/21 09:09:36;;;;;;;1999.90;999.90;;;20.80;99.90;;;;;;5091784;28;20054;-66
2022/09/21 09:12:11;;;;;;;1999.90;999.90;;;21.00;99.90;;;;;;5110793;28;20503;-66
2022/09/21 09:15:14;;;;;;;1999.90;999.90;;;21.10;99.90;;;;;;5106174;28;20063;-66
2022/09/21 09:17:48;;;;;;;1999.90;999.90;;;21.10;99.90;;;;;;5100249;27;20047;-66
2022/09/21 09:20:34;;;;;;;1999.90;999.90;;;21.10;99.90;;;;;;5101030;27;20193;-66
2022/09/21 09:23:09;;;;;;;1999.90;999.90;;;21.40;99.90;;;;;;5100375;27;20757;-66
2022/09/21 09:25:39;;;;;;;1999.90;999.90;;;21.60;99.90;;;;;;5100266;27;20036;-66
2022/09/21 09:28:23;;;;;;;1999.90;999.90;;;21.70;99.90;;;;;;5095611;28;20404;-66
2022/09/21 09:30:59;;;;;;;1999.90;999.90;;;21.80;99.90;;;;;;5099806;28;20060;-66
2022/09/21 09:33:32;;;;;;;1999.90;999.90;;;21.80;99.90;;;;;;5107620;28;20043;-66
2022/09/21 09:36:02;;;;;;;1999.90;999.90;;;21.80;99.90;;;;;;5107039;28;20078;-66
2022/09/21 09:38:45;;;;;;;1999.90;999.90;;;21.70;99.90;;;;;;5090210;28;20079;-66
2022/09/21 09:41:33;;;;;;;1999.90;999.90;;;21.80;99.90;;;;;;5101886;28;20114;-66
2022/09/21 09:43:58;;;;;;;1999.90;999.90;;;21.80;99.90;;;;;;5086004;28;20046;-67
2022/09/21 09:46:34;;;;;;;1999.90;999.90;;;21.70;99.90;;;;;;5105281;28;20039;-67
2022/09/21 09:49:15;;;;;;;1999.90;999.90;;;21.80;99.90;;;;;;5092830;28;20039;-66
2022/09/21 09:51:41;;;;;;;1999.90;999.90;;;21.70;99.90;;;;;;5105607;28;20547;-66
2022/09/21 09:54:13;;;;;;;1999.90;999.90;;;21.70;99.90;;;;;;5104963;28;20046;-67
2022/09/21 09:56:39;;;;;;;1999.90;999.90;;;21.80;99.90;;;;;;5105065;28;20051;-66
2022/09/21 09:59:15;;;;;;;1999.90;999.90;;;21.70;99.90;;;;;;5104260;28;20044;-66
2022/09/21 10:01:46;;;;;;;1999.90;999.90;;;21.50;99.90;;;;;;5083538;27;20040;-66
2022/09/21 10:04:14;;;;;;;1999.90;999.90;;;21.30;99.90;;;;;;5100624;28;20048;-66
2022/09/21 10:06:41;;;;;;;1999.90;999.90;;;20.90;99.90;;;;;;5087495;28;20129;-66
2022/09/21 10:09:23;;;;;;;1999.90;999.90;;;20.90;99.90;;;;;;5106631;28;20506;-66
2022/09/21 10:11:51;;;;;;;1999.90;999.90;;;20.40;99.90;;;;;;5101495;28;20035;-66
2022/09/21 10:14:23;;;;;;;1999.90;999.90;;;20.30;99.90;;;;;;5080719;28;20511;-66
2022/09/21 10:16:50;;;;;;;1999.90;999.90;;;20.20;99.90;;;;;;5106656;27;20082;-66
2022/09/21 10:19:25;;;;;;;1999.90;999.90;;;20.10;99.90;;;;;;5099346;28;20122;-66
2022/09/21 10:21:57;;;;;;;1999.90;999.90;;;20.10;99.90;;;;;;5102116;28;20039;-67
2022/09/21 10:24:28;;;;;;;1999.90;999.90;;;20.20;99.90;;;;;;5101636;28;20027;-66
2022/09/21 10:27:14;;;;;;;1999.90;999.90;;;20.10;99.90;;;;;;5103881;28;20082;-66
2022/09/21 10:29:45;;;;;;;1999.90;999.90;;;20.10;99.90;;;;;;5102084;28;20049;-66
2022/09/21 10:32:15;;;;;;;1999.90;999.90;;;20.20;99.90;;;;;;5084888;27;20151;-67
2022/09/21 10:35:18;;;;;;;1999.90;999.90;;;20.30;99.90;;;;;;5098920;28;20043;-66
2022/09/21 10:37:49;;;;;;;1999.90;999.90;;;20.30;99.90;;;;;;5023452;28;20049;-66
2022/09/21 10:40:20;;;;;;;1999.90;999.90;;;20.50;99.90;;;;;;5060513;28;20063;-66
2022/09/21 10:42:52;;;;;;;1999.90;999.90;;;20.50;99.90;;;;;;5041324;28;20051;-66
2022/09/21 10:45:19;;;;;;;1999.90;999.90;;;20.50;99.90;;;;;;5058755;28;20147;-66
2022/09/21 10:48:05;;;;;;;1999.90;999.90;;;20.50;99.90;;;;;;5056017;28;20047;-66
2022/09/21 10:50:41;;;;;;;1999.90;999.90;;;20.70;99.90;;;;;;5041541;28;21004;-66
2022/09/21 10:53:09;;;;;;;1999.90;999.90;;;20.70;99.90;;;;;;5052018;28;20438;-66
2022/09/21 10:55:57;;;;;;;1999.90;999.90;;;20.70;99.90;;;;;;5061416;28;20056;-66
2022/09/21 10:58:23;;;;;;;1999.90;999.90;;;20.50;99.90;;;;;;5050690;28;20056;-66
2022/09/21 11:00:51;;;;;;;1999.90;999.90;;;20.10;99.90;;;;;;5059053;28;20032;-66
2022/09/21 11:03:29;;;;;;;1999.90;999.90;;;19.70;99.90;;;;;;5043198;28;20115;-66
2022/09/21 11:06:07;;;;;;;1999.90;999.90;;;19.10;99.90;;;;;;5059574;28;20162;-66
2022/09/21 11:08:40;;;;;;;1999.90;999.90;;;18.70;99.90;;;;;;5060934;28;20105;-66
2022/09/21 11:11:38;;;;;;;1999.90;999.90;;;18.40;99.90;;;;;;5044422;28;20777;-66
2022/09/21 11:14:10;;;;;;;1999.90;999.90;;;18.00;99.90;;;;;;5014098;28;20049;-66
2022/09/21 11:16:42;;;;;;;1999.90;999.90;;;17.70;99.90;;;;;;4997170;28;20053;-66
2022/09/21 11:19:17;;;;;;;1999.90;999.90;;;17.50;99.90;;;;;;5000071;28;20628;-66
2022/09/21 11:22:04;;;;;;;1999.90;999.90;;;17.40;99.90;;;;;;5019522;28;20406;-66
2022/09/21 11:24:42;;;;;;;1999.90;999.90;;;17.60;99.90;;;;;;5003364;28;20045;-66
2022/09/21 11:27:12;;;;;;;1999.90;999.90;;;17.70;99.90;;;;;;5022313;28;20545;-66
2022/09/21 11:30:03;;;;;;;1999.90;999.90;;;17.70;99.90;;;;;;5019274;28;20093;-66
2022/09/21 11:32:45;;;;;;;1999.90;999.90;;;17.60;99.90;;;;;;4993502;28;20068;-66
2022/09/21 11:35:31;;;;;;;1999.90;999.90;;;17.70;99.90;;;;;;5012737;28;20060;-66
2022/09/21 11:38:38;;;;;;;1999.90;999.90;;;18.10;99.90;;;;;;5015224;28;20046;-66
2022/09/21 11:41:20;;;;;;;1999.90;999.90;;;18.30;99.90;;;;;;4977606;28;20448;-66
2022/09/21 11:44:18;;;;;;;1999.90;999.90;;;18.30;99.90;;;;;;5014017;28;20060;-66
2022/09/21 11:47:15;;;;;;;1999.90;999.90;;;18.70;99.90;;;;;;5017123;28;20529;-66
2022/09/21 11:50:16;;;;;;;1999.90;999.90;;;19.20;99.90;;;;;;5064309;27;20101;-66
2022/09/21 11:53:03;;;;;;;1999.90;999.90;;;19.60;99.90;;;;;;5102491;28;20044;-66
2022/09/21 11:55:55;;;;;;;1999.90;999.90;;;20.10;99.90;;;;;;5099148;28;20123;-67
2022/09/21 11:58:46;;;;;;;1999.90;999.90;;;20.40;99.90;;;;;;5097248;28;20106;-66
2022/09/21 12:01:33;;;;;;;1999.90;999.90;;;20.60;99.90;;;;;;5076414;28;20051;-66
2022/09/21 12:04:33;;;;;;;1999.90;999.90;;;20.50;99.30;;;;;;5049015;28;20094;-66
2022/09/21 12:07:05;;;;;;;1999.90;999.90;;;20.40;99.90;;;;;;5066387;28;20567;-66
2022/09/21 12:09:49;;;;;;;1999.90;999.90;;;20.50;99.90;;;;;;5081981;28;20115;-66
2022/09/21 12:12:42;;;;;;;1999.90;999.90;;;20.60;99.90;;;;;;5066190;28;20074;-66
2022/09/21 12:15:37;;;;;;;1999.90;999.90;;;20.30;97.40;;;;;;5079748;28;20080;-66
2022/09/21 12:18:14;;;;;;;1999.90;999.90;;;20.10;98.00;;;;;;5084803;28;20048;-66
2022/09/21 12:20:55;;;;;;;1999.90;999.90;;;20.30;99.00;;;;;;5082056;28;20032;-66
2022/09/21 12:23:45;;;;;;;1999.90;999.90;;;20.40;99.30;;;;;;5085332;28;20416;-66
2022/09/21 12:26:15;;;;;;;1999.90;999.90;;;20.70;99.60;;;;;;5079954;28;20063;-66
2022/09/21 12:28:46;;;;;;;1999.90;999.90;;;20.70;98.70;;;;;;5062639;28;20052;-66
2022/09/21 12:31:27;;;;;;;1999.90;999.90;;;20.50;98.10;;;;;;5085699;28;20127;-66